createdAt,value
2022-09-04T00:01:45.178Z,23.10
2022-09-04T00:04:55.679Z,23.10
2022-09-04T00:08:19.654Z,23.11
2022-09-04T00:11:45.968Z,23.10
2022-09-04T00:14:58.518Z,23.02
2022-09-04T00:18:09.993Z,23.05
2022-09-04T00:21:14.756Z,23.06
2022-09-04T00:24:20.277Z,23.02
2022-09-04T00:27:28.076Z,23.07
2022-09-04T00:30:34.667Z,22.97
2022-09-04T00:34:20.202Z,22.94
2022-09-04T00:37:28.250Z,22.93
2022-09-04T00:40:35.877Z,22.97
2022-09-04T00:43:52.721Z,23.05
2022-09-04T00:47:16.457Z,23.00
2022-09-04T00:50:42.622Z,23.05
2022-09-04T00:54:04.982Z,23.05
2022-09-04T00:57:34.855Z,23.05
2022-09-04T01:00:36.845Z,23.02
2022-09-04T01:04:03.786Z,23.07
2022-09-04T01:07:06.439Z,23.07
2022-09-04T01:10:35.708Z,23.06
2022-09-04T01:13:51.079Z,23.08
2022-09-04T01:16:53.146Z,23.06
2022-09-04T01:20:47.159Z,23.08
2022-09-04T01:24:18.307Z,23.08
2022-09-04T01:27:28.925Z,23.06
2022-09-04T01:30:57.539Z,23.06
2022-09-04T01:34:36.960Z,23.06
2022-09-04T01:37:50.217Z,23.05
2022-09-04T01:41:20.464Z,23.05
2022-09-04T01:44:23.637Z,23.03
2022-09-04T01:47:49.473Z,22.98
2022-09-04T01:50:58.478Z,22.97
2022-09-04T01:54:10.568Z,22.94
2022-09-04T01:57:41.232Z,22.94
2022-09-04T02:01:10.663Z,22.90
2022-09-04T02:04:28.004Z,22.98
2022-09-04T02:07:38.691Z,22.97
2022-09-04T02:10:56.974Z,23.01
2022-09-04T02:14:44.141Z,22.98
2022-09-04T02:18:11.803Z,22.98
2022-09-04T02:21:45.127Z,23.00
2022-09-04T02:25:00.599Z,22.96
2022-09-04T02:28:14.629Z,23.01
2022-09-04T02:31:29.837Z,22.98
2022-09-04T02:34:45.175Z,22.92
2022-09-04T02:37:58.589Z,22.91
2022-09-04T02:41:30.478Z,22.95
2022-09-04T02:44:53.977Z,22.94
2022-09-04T02:48:17.589Z,23.01
2022-09-04T02:51:26.567Z,22.99
2022-09-04T02:55:05.483Z,23.00
2022-09-04T02:58:39.815Z,23.00
2022-09-04T03:01:59.589Z,23.01
2022-09-04T03:05:23.375Z,22.99
2022-09-04T03:08:37.861Z,23.02
2022-09-04T03:11:50.859Z,23.02
2022-09-04T03:15:05.032Z,23.01
2022-09-04T03:18:16.799Z,23.01
2022-09-04T03:21:49.856Z,22.95
2022-09-04T03:25:45.935Z,22.93
2022-09-04T03:29:16.355Z,22.93
2022-09-04T03:32:30.871Z,22.96
2022-09-04T03:36:03.289Z,22.90
2022-09-04T03:39:14.425Z,22.95
2022-09-04T03:42:31.628Z,22.94
2022-09-04T03:45:55.282Z,22.92
2022-09-04T03:49:06.399Z,22.93
2022-09-04T03:52:18.335Z,22.86
2022-09-04T03:55:57.766Z,22.94
2022-09-04T03:59:05.729Z,22.96
2022-09-04T04:02:24.713Z,22.96
2022-09-04T04:06:00.513Z,22.93
2022-09-04T04:09:11.957Z,22.89
2022-09-04T04:12:43.829Z,22.88
2022-09-04T04:16:04.587Z,22.89
2022-09-04T04:19:18.750Z,22.89
2022-09-04T04:22:33.400Z,22.88
2022-09-04T04:25:38.924Z,22.89
2022-09-04T04:29:02.890Z,22.92
2022-09-04T04:32:55.911Z,22.96
2022-09-04T04:36:46.140Z,22.91
2022-09-04T04:40:01.169Z,23.00
2022-09-04T04:43:13.084Z,22.96
2022-09-04T04:46:42.620Z,22.97
2022-09-04T04:50:08.406Z,23.03
2022-09-04T04:53:31.563Z,23.07
2022-09-04T04:57:05.326Z,23.08
2022-09-04T05:00:22.788Z,23.08
2022-09-04T05:03:33.473Z,23.10
2022-09-04T05:06:47.628Z,23.07
2022-09-04T05:10:18.977Z,22.59
2022-09-04T05:13:33.900Z,23.03
2022-09-04T05:16:55.778Z,23.05
2022-09-04T05:20:28.649Z,23.08
2022-09-04T05:23:45.995Z,23.05
2022-09-04T05:27:26.789Z,23.07
2022-09-04T05:30:40.506Z,23.04
2022-09-04T05:33:51.831Z,23.03
2022-09-04T05:37:21.484Z,22.95
2022-09-04T05:40:44.109Z,22.88
2022-09-04T05:43:58.275Z,22.88
2022-09-04T05:47:09.420Z,22.84
2022-09-04T05:50:37.071Z,22.89
2022-09-04T05:54:03.460Z,22.87
2022-09-04T05:57:47.233Z,22.75
2022-09-04T06:01:08.914Z,22.87
2022-09-04T06:04:35.824Z,23.08
2022-09-04T06:07:52.012Z,22.96
2022-09-04T06:10:59.986Z,23.03
2022-09-04T06:14:26.853Z,22.96
2022-09-04T06:17:52.161Z,22.98
2022-09-04T06:21:07.895Z,22.89
2022-09-04T06:24:44.816Z,22.98
2022-09-04T06:28:08.265Z,23.16
2022-09-04T06:31:19.914Z,23.24
2022-09-04T06:34:54.719Z,23.27
2022-09-04T06:38:36.741Z,23.31
2022-09-04T06:42:07.656Z,23.35
2022-09-04T06:45:24.853Z,23.38
2022-09-04T06:48:45.613Z,23.39
2022-09-04T06:52:20.408Z,23.40
2022-09-04T06:55:37.883Z,23.46
2022-09-04T06:59:04.375Z,23.45
2022-09-04T07:02:26.175Z,23.29
2022-09-04T07:05:31.227Z,23.05
2022-09-04T07:08:40.333Z,22.82
2022-09-04T07:12:01.178Z,22.97
2022-09-04T07:15:41.176Z,23.11
2022-09-04T07:19:01.593Z,23.12
2022-09-04T07:22:18.119Z,23.24
2022-09-04T07:25:34.060Z,23.27
2022-09-04T07:29:13.050Z,23.35
2022-09-04T07:32:20.313Z,23.33
2022-09-04T07:35:53.312Z,23.14
2022-09-04T07:39:26.540Z,22.93
2022-09-04T07:42:39.033Z,22.96
2022-09-04T07:45:56.757Z,23.04
2022-09-04T07:49:13.991Z,23.24
2022-09-04T07:52:30.054Z,23.22
2022-09-04T07:55:47.007Z,23.06
2022-09-04T07:59:26.723Z,22.99
2022-09-04T08:03:06.125Z,23.01
2022-09-04T08:06:25.056Z,23.13
2022-09-04T08:09:43.433Z,23.19
2022-09-04T08:12:56.544Z,23.29
2022-09-04T08:16:23.486Z,23.20
2022-09-04T08:19:25.502Z,23.16
2022-09-04T08:22:54.499Z,23.16
2022-09-04T08:26:01.514Z,23.09
2022-09-04T08:29:35.817Z,23.04
2022-09-04T08:33:05.682Z,23.03
2022-09-04T08:36:13.355Z,23.14
2022-09-04T08:40:01.480Z,23.26
2022-09-04T08:43:16.271Z,23.01
2022-09-04T08:46:49.364Z,23.00
2022-09-04T08:50:25.781Z,23.13
2022-09-04T08:54:05.381Z,23.16
2022-09-04T08:57:25.933Z,23.24
2022-09-04T09:00:38.900Z,23.05
2022-09-04T09:04:12.146Z,23.17
2022-09-04T09:07:17.046Z,23.18
2022-09-04T09:10:37.806Z,23.23
2022-09-04T09:14:01.810Z,23.32
2022-09-04T09:17:21.529Z,23.46
2022-09-04T09:20:53.062Z,23.52
2022-09-04T09:24:13.007Z,23.32
2022-09-04T09:27:36.444Z,23.13
2022-09-04T09:31:11.133Z,23.09
2022-09-04T09:34:31.570Z,23.14
2022-09-04T09:38:00.037Z,23.29
2022-09-04T09:41:10.451Z,23.38
2022-09-04T09:44:27.545Z,23.33
2022-09-04T09:47:56.898Z,23.26
2022-09-04T09:51:23.947Z,23.31
2022-09-04T09:54:42.060Z,23.28
2022-09-04T09:58:21.294Z,23.21
2022-09-04T10:01:26.301Z,23.25
2022-09-04T10:04:49.327Z,23.27
2022-09-04T10:08:03.347Z,23.34
2022-09-04T10:11:23.961Z,23.29
2022-09-04T10:14:47.808Z,23.29
2022-09-04T10:18:15.008Z,23.33
2022-09-04T10:21:38.303Z,23.38
2022-09-04T10:24:43.482Z,23.42
2022-09-04T10:28:16.918Z,23.40
2022-09-04T10:31:53.477Z,23.33
2022-09-04T10:35:33.239Z,23.22
2022-09-04T10:39:03.377Z,23.13
2022-09-04T10:42:20.083Z,23.20
2022-09-04T10:45:48.139Z,23.21
2022-09-04T10:48:56.809Z,23.16
2022-09-04T10:52:05.627Z,23.29
2022-09-04T10:55:26.808Z,23.38
2022-09-04T10:58:40.622Z,23.42
2022-09-04T11:02:14.003Z,23.34
2022-09-04T11:05:31.853Z,23.31
2022-09-04T11:08:55.367Z,23.45
2022-09-04T11:12:09.731Z,23.48
2022-09-04T11:15:23.555Z,23.52
2022-09-04T11:18:53.676Z,23.54
2022-09-04T11:21:59.145Z,23.55
2022-09-04T11:25:07.412Z,23.52
2022-09-04T11:28:46.887Z,23.40
2022-09-04T11:32:15.799Z,23.39
2022-09-04T11:35:36.702Z,23.38
2022-09-04T11:38:44.682Z,23.24
2022-09-04T11:42:20.546Z,23.21
2022-09-04T11:46:02.559Z,23.41
2022-09-04T11:49:31.276Z,23.47
2022-09-04T11:52:47.766Z,23.34
2022-09-04T11:56:11.208Z,23.28
2022-09-04T12:00:12.430Z,23.23
2022-09-04T12:03:36.565Z,23.21
2022-09-04T12:07:12.625Z,23.23
2022-09-04T12:10:43.485Z,23.17
2022-09-04T12:14:23.294Z,23.31
2022-09-04T12:17:32.123Z,23.28
2022-09-04T12:20:48.166Z,23.26
2022-09-04T12:24:08.508Z,23.36
2022-09-04T12:27:38.059Z,23.44
2022-09-04T12:30:55.382Z,23.30
2022-09-04T12:34:25.643Z,23.26
2022-09-04T12:37:54.099Z,23.36
2022-09-04T12:41:03.099Z,23.37
2022-09-04T12:44:08.770Z,23.40
2022-09-04T12:47:43.586Z,23.38
2022-09-04T12:51:04.910Z,23.37
2022-09-04T12:54:25.135Z,23.33
2022-09-04T12:57:37.252Z,23.30
2022-09-04T13:00:51.281Z,23.22
2022-09-04T13:04:06.226Z,23.26
2022-09-04T13:07:58.069Z,23.33
2022-09-04T13:11:16.615Z,23.38
2022-09-04T13:14:34.841Z,23.41
2022-09-04T13:18:31.714Z,23.48
2022-09-04T13:21:56.765Z,23.50
2022-09-04T13:25:02.842Z,23.39
2022-09-04T13:28:38.525Z,23.40
2022-09-04T13:31:43.890Z,23.37
2022-09-04T13:34:52.217Z,23.41
2022-09-04T13:38:06.189Z,23.45
2022-09-04T13:41:30.518Z,23.45
2022-09-04T13:44:51.709Z,23.46
2022-09-04T13:48:00.674Z,23.41
2022-09-04T13:51:13.882Z,23.41
2022-09-04T13:54:26.028Z,23.40
2022-09-04T13:57:33.266Z,23.39
2022-09-04T14:00:37.911Z,23.35
2022-09-04T14:03:49.884Z,23.33
2022-09-04T14:07:07.201Z,23.36
2022-09-04T14:10:15.258Z,23.36
2022-09-04T14:13:38.015Z,23.41
2022-09-04T14:16:41.901Z,23.42
2022-09-04T14:20:02.336Z,23.42
2022-09-04T14:23:39.647Z,23.38
2022-09-04T14:27:09.501Z,23.42
2022-09-04T14:30:17.229Z,23.43
2022-09-04T14:33:50.256Z,23.43
2022-09-04T14:37:40.246Z,23.38
2022-09-04T14:41:10.947Z,23.39
2022-09-04T14:44:57.491Z,23.35
2022-09-04T14:48:07.703Z,23.29
2022-09-04T14:51:17.557Z,23.31
2022-09-04T14:54:30.753Z,23.35
2022-09-04T14:57:44.514Z,23.32
2022-09-04T15:00:57.446Z,23.35
2022-09-04T15:04:19.186Z,23.40
2022-09-04T15:07:30.926Z,23.39
2022-09-04T15:10:36.404Z,23.38
2022-09-04T15:13:51.124Z,23.33
2022-09-04T15:17:00.292Z,23.36
2022-09-04T15:20:11.590Z,23.30
2022-09-04T15:23:31.352Z,23.32
2022-09-04T15:26:46.877Z,23.31
2022-09-04T15:29:52.131Z,23.27
2022-09-04T15:33:23.906Z,23.26
2022-09-04T15:36:27.810Z,23.25
2022-09-04T15:39:39.895Z,23.23
2022-09-04T15:42:47.289Z,23.32
2022-09-04T15:45:52.498Z,23.35
2022-09-04T15:49:21.553Z,23.30
2022-09-04T15:52:29.851Z,23.29
2022-09-04T15:55:35.851Z,23.10
2022-09-04T15:58:57.940Z,23.26
2022-09-04T16:02:17.240Z,23.27
2022-09-04T16:05:25.272Z,23.28
2022-09-04T16:08:37.254Z,23.29
2022-09-04T16:11:46.952Z,23.16
2022-09-04T16:15:00.254Z,23.27
2022-09-04T16:18:15.704Z,23.25
2022-09-04T16:21:43.173Z,23.24
2022-09-04T16:24:54.141Z,23.26
2022-09-04T16:28:15.237Z,23.23
2022-09-04T16:31:31.488Z,23.22
2022-09-04T16:34:40.461Z,23.12
2022-09-04T16:37:51.581Z,23.09
2022-09-04T16:41:02.667Z,23.13
2022-09-04T16:44:11.247Z,23.16
2022-09-04T16:47:25.642Z,23.21
2022-09-04T16:50:53.803Z,23.04
2022-09-04T16:54:23.209Z,23.20
2022-09-04T16:57:46.095Z,23.21
2022-09-04T17:01:14.300Z,23.20
2022-09-04T17:04:28.846Z,23.14
2022-09-04T17:07:37.756Z,23.07
2022-09-04T17:10:52.793Z,23.15
2022-09-04T17:14:08.892Z,23.17
2022-09-04T17:17:30.221Z,23.17
2022-09-04T17:24:54.341Z,23.16
2022-09-04T17:29:08.242Z,23.21
2022-09-04T17:29:10.933Z,23.22
2022-09-04T17:31:45.510Z,23.21
2022-09-04T17:40:36.878Z,23.21
2022-09-04T17:40:53.112Z,23.22
2022-09-04T17:42:19.989Z,23.21
2022-09-04T17:45:34.467Z,23.20
2022-09-04T17:48:42.692Z,23.20
2022-09-04T17:51:57.612Z,23.17
2022-09-04T17:55:13.875Z,23.18
2022-09-04T17:58:28.777Z,23.16
2022-09-04T18:01:39.495Z,23.15
2022-09-04T18:04:54.003Z,23.15
2022-09-04T18:08:11.383Z,23.11
2022-09-04T18:11:37.150Z,23.15
2022-09-04T18:15:27.605Z,23.12
2022-09-04T18:18:40.217Z,23.15
2022-09-04T18:22:25.289Z,23.10
2022-09-04T18:25:24.793Z,23.15
2022-09-04T18:28:37.973Z,23.15
2022-09-04T18:37:13.274Z,23.15
2022-09-04T18:37:26.210Z,23.13
2022-09-04T18:39:13.393Z,23.13
2022-09-04T18:50:03.611Z,23.06
2022-09-04T18:50:33.450Z,23.06
2022-09-04T18:50:35.752Z,23.11
2022-09-04T18:52:55.414Z,23.10
2022-09-04T18:56:05.533Z,23.08
2022-09-04T18:59:38.516Z,23.08
2022-09-04T19:02:53.895Z,23.06
2022-09-04T19:06:05.632Z,23.06
2022-09-04T19:09:14.943Z,23.02
2022-09-04T19:12:21.593Z,22.92
2022-09-04T19:15:36.680Z,22.90
2022-09-04T19:18:43.845Z,22.93
2022-09-04T19:22:01.604Z,22.94
2022-09-04T19:25:16.687Z,22.90
2022-09-04T19:28:27.618Z,22.97
2022-09-04T19:31:39.522Z,22.97
2022-09-04T19:34:44.678Z,22.98
2022-09-04T19:43:31.805Z,23.01
2022-09-04T19:46:08.364Z,23.01
2022-09-04T19:46:15.286Z,23.01
2022-09-04T19:48:49.217Z,22.93
2022-09-04T19:53:30.089Z,22.93
2022-09-04T19:56:20.449Z,22.94
2022-09-04T19:59:45.413Z,22.92
2022-09-04T20:03:29.962Z,22.92
2022-09-04T20:07:02.810Z,22.86
2022-09-04T20:10:17.364Z,22.86
2022-09-04T20:13:37.687Z,22.83
2022-09-04T20:16:59.433Z,22.82
2022-09-04T20:20:06.115Z,22.89
2022-09-04T20:23:33.781Z,22.83
2022-09-04T20:26:56.617Z,22.87
2022-09-04T20:30:04.924Z,22.92
2022-09-04T20:33:14.007Z,22.94
2022-09-04T20:36:19.986Z,22.94
2022-09-04T20:39:59.559Z,22.93
2022-09-04T20:43:31.934Z,22.90
2022-09-04T20:52:09.139Z,22.95
2022-09-04T20:52:52.230Z,22.94
2022-09-04T20:54:07.605Z,22.93
2022-09-04T21:00:02.674Z,22.88
2022-09-04T21:03:16.997Z,22.83
2022-09-04T21:04:42.666Z,22.84
2022-09-04T21:07:52.608Z,22.88
2022-09-04T21:11:38.788Z,22.91
2022-09-04T21:14:51.139Z,22.91
2022-09-04T21:18:18.127Z,22.91
2022-09-04T21:21:52.591Z,22.92
2022-09-04T21:25:30.258Z,22.84
2022-09-04T21:28:50.631Z,22.91
2022-09-04T21:32:26.687Z,22.91
2022-09-04T21:35:47.857Z,22.90
2022-09-04T21:38:52.155Z,22.88
2022-09-04T21:42:16.745Z,22.87
2022-09-04T21:45:28.718Z,22.86
2022-09-04T21:48:30.761Z,22.84
2022-09-04T21:52:08.066Z,22.85
2022-09-04T22:00:32.062Z,22.79
2022-09-04T22:02:42.251Z,22.76
2022-09-04T22:03:31.457Z,22.78
2022-09-04T22:10:49.491Z,22.82
2022-09-04T22:13:37.744Z,22.82
2022-09-04T22:14:25.644Z,22.83
2022-09-04T22:17:50.749Z,22.83
2022-09-04T22:21:28.981Z,22.78
2022-09-04T22:24:58.475Z,22.83
2022-09-04T22:28:48.938Z,22.81
2022-09-04T22:32:20.488Z,22.79
2022-09-04T22:35:52.893Z,22.80
2022-09-04T22:39:02.752Z,22.75
2022-09-04T22:42:42.458Z,22.78
2022-09-04T22:46:11.637Z,22.80
2022-09-04T22:49:29.354Z,22.82
2022-09-04T22:52:46.595Z,22.83
2022-09-04T22:56:22.821Z,22.84
2022-09-04T22:59:26.964Z,22.84
2022-09-04T23:08:12.223Z,22.86
2022-09-04T23:13:56.672Z,22.86
2022-09-04T23:13:59.659Z,22.85
2022-09-04T23:17:01.851Z,22.81
2022-09-04T23:26:30.936Z,22.85
2022-09-04T23:26:45.673Z,22.79
2022-09-04T23:27:37.903Z,22.84
2022-09-04T23:30:50.599Z,22.85
2022-09-04T23:34:07.910Z,22.84
2022-09-04T23:37:38.575Z,22.83
2022-09-04T23:41:15.909Z,22.82
2022-09-04T23:44:36.096Z,22.78
2022-09-04T23:48:08.788Z,22.76
2022-09-04T23:51:26.593Z,22.76
2022-09-04T23:54:45.943Z,22.75
2022-09-04T23:57:57.063Z,22.73
